sensor_id;sensor_type;location;lat;lon;timestamp;pressure;altitude;pressure_sealevel;temperature;humidity
70445;BME280;57902;49.638;11.070;2023-01-16T00:01:30;97170.22;;;1.39;98.23
70445;BME280;57902;49.638;11.070;2023-01-16T00:03:57;97151.56;;;1.43;97.39
70445;BME280;57902;49.638;11.070;2023-01-16T00:06:23;97154.88;;;1.47;97.51
70445;BME280;57902;49.638;11.070;2023-01-16T00:08:50;97155.72;;;1.49;97.18
70445;BME280;57902;49.638;11.070;2023-01-16T00:11:16;97144.69;;;1.48;96.85
70445;BME280;57902;49.638;11.070;2023-01-16T00:13:43;97148.94;;;1.49;96.93
70445;BME280;57902;49.638;11.070;2023-01-16T00:16:09;97138.78;;;1.49;97.20
70445;BME280;57902;49.638;11.070;2023-01-16T00:18:36;97141.25;;;1.54;96.32
70445;BME280;57902;49.638;11.070;2023-01-16T00:21:03;97133.69;;;1.51;96.58
70445;BME280;57902;49.638;11.070;2023-01-16T00:23:29;97134.59;;;1.45;96.78
70445;BME280;57902;49.638;11.070;2023-01-16T00:25:55;97129.47;;;1.48;96.66
70445;BME280;57902;49.638;11.070;2023-01-16T00:28:22;97122.78;;;1.43;96.94
70445;BME280;57902;49.638;11.070;2023-01-16T00:30:48;97131.22;;;1.43;96.90
70445;BME280;57902;49.638;11.070;2023-01-16T00:33:15;97125.34;;;1.38;97.35
70445;BME280;57902;49.638;11.070;2023-01-16T00:35:42;97128.78;;;1.37;97.59
70445;BME280;57902;49.638;11.070;2023-01-16T00:38:08;97121.16;;;1.37;97.81
70445;BME280;57902;49.638;11.070;2023-01-16T00:40:35;97109.28;;;1.39;97.26
70445;BME280;57902;49.638;11.070;2023-01-16T00:43:01;97110.13;;;1.38;97.35
70445;BME280;57902;49.638;11.070;2023-01-16T00:45:28;97098.34;;;1.34;97.57
70445;BME280;57902;49.638;11.070;2023-01-16T00:47:54;97089.88;;;1.33;97.41
70445;BME280;57902;49.638;11.070;2023-01-16T00:50:20;97102.50;;;1.38;96.93
70445;BME280;57902;49.638;11.070;2023-01-16T00:52:47;97094.19;;;1.27;98.15
70445;BME280;57902;49.638;11.070;2023-01-16T00:55:13;97079.84;;;1.24;97.71
70445;BME280;57902;49.638;11.070;2023-01-16T00:57:40;97086.53;;;1.30;97.35
70445;BME280;57902;49.638;11.070;2023-01-16T01:00:07;97084.78;;;1.35;96.54
70445;BME280;57902;49.638;11.070;2023-01-16T01:02:33;97083.09;;;1.34;96.96
70445;BME280;57902;49.638;11.070;2023-01-16T01:05:00;97072.13;;;1.30;97.56
70445;BME280;57902;49.638;11.070;2023-01-16T01:07:26;97076.38;;;1.31;96.99
70445;BME280;57902;49.638;11.070;2023-01-16T01:09:53;97073.00;;;1.31;96.77
70445;BME280;57902;49.638;11.070;2023-01-16T01:12:19;97060.28;;;1.29;96.88
70445;BME280;57902;49.638;11.070;2023-01-16T01:14:45;97053.53;;;1.30;96.78
70445;BME280;57902;49.638;11.070;2023-01-16T01:17:12;97059.41;;;1.32;96.54
70445;BME280;57902;49.638;11.070;2023-01-16T01:19:38;97046.69;;;1.35;95.70
70445;BME280;57902;49.638;11.070;2023-01-16T01:22:05;97058.50;;;1.37;95.34
70445;BME280;57902;49.638;11.070;2023-01-16T01:24:31;97053.50;;;1.33;95.72
70445;BME280;57902;49.638;11.070;2023-01-16T01:26:58;97056.00;;;1.34;95.51
70445;BME280;57902;49.638;11.070;2023-01-16T01:29:24;97067.03;;;1.32;96.46
70445;BME280;57902;49.638;11.070;2023-01-16T01:31:50;97053.50;;;1.33;96.05
70445;BME280;57902;49.638;11.070;2023-01-16T01:34:17;97055.22;;;1.31;96.21
70445;BME280;57902;49.638;11.070;2023-01-16T01:36:43;97052.69;;;1.31;96.25
70445;BME280;57902;49.638;11.070;2023-01-16T01:39:10;97041.59;;;1.36;95.24
70445;BME280;57902;49.638;11.070;2023-01-16T01:41:36;97035.59;;;1.42;95.22
70445;BME280;57902;49.638;11.070;2023-01-16T01:47:08;97024.53;;;1.46;95.04
70445;BME280;57902;49.638;11.070;2023-01-16T01:49:35;97026.97;;;1.52;94.45
70445;BME280;57902;49.638;11.070;2023-01-16T01:52:04;97014.19;;;1.58;93.96
70445;BME280;57902;49.638;11.070;2023-01-16T01:54:36;97005.75;;;1.58;94.18
70445;BME280;57902;49.638;11.070;2023-01-16T01:57:10;96997.19;;;1.65;93.48
70445;BME280;57902;49.638;11.070;2023-01-16T01:59:42;96998.81;;;1.69;92.92
70445;BME280;57902;49.638;11.070;2023-01-16T02:02:13;96987.00;;;1.67;93.09
70445;BME280;57902;49.638;11.070;2023-01-16T02:04:42;96979.34;;;1.68;92.84
70445;BME280;57902;49.638;11.070;2023-01-16T02:07:10;96986.06;;;1.72;92.73
70445;BME280;57902;49.638;11.070;2023-01-16T02:09:38;96978.44;;;1.72;93.00
70445;BME280;57902;49.638;11.070;2023-01-16T02:12:10;96973.28;;;1.77;92.44
70445;BME280;57902;49.638;11.070;2023-01-16T02:14:40;96968.19;;;1.77;92.54
70445;BME280;57902;49.638;11.070;2023-01-16T02:17:09;96951.25;;;1.79;92.12
70445;BME280;57902;49.638;11.070;2023-01-16T02:20:11;96956.34;;;1.76;92.25
70445;BME280;57902;49.638;11.070;2023-01-16T02:23:10;96950.56;;;1.68;93.36
70445;BME280;57902;49.638;11.070;2023-01-16T02:31:33;96940.50;;;1.63;93.62
70445;BME280;57902;49.638;11.070;2023-01-16T02:44:40;96918.38;;;1.68;92.69
70445;BME280;57902;49.638;11.070;2023-01-16T02:47:27;96904.94;;;1.63;93.14
70445;BME280;57902;49.638;11.070;2023-01-16T02:50:10;96891.28;;;1.67;93.08
70445;BME280;57902;49.638;11.070;2023-01-16T02:52:43;96886.19;;;1.70;93.00
70445;BME280;57902;49.638;11.070;2023-01-16T02:55:26;96882.91;;;1.62;93.35
70445;BME280;57902;49.638;11.070;2023-01-16T02:57:57;96875.31;;;1.61;93.85
70445;BME280;57902;49.638;11.070;2023-01-16T03:00:26;96868.50;;;1.63;92.87
70445;BME280;57902;49.638;11.070;2023-01-16T03:02:54;96865.09;;;1.64;93.00
70445;BME280;57902;49.638;11.070;2023-01-16T03:05:22;96871.88;;;1.65;92.90
70445;BME280;57902;49.638;11.070;2023-01-16T03:08:29;96863.38;;;1.66;92.93
70445;BME280;57902;49.638;11.070;2023-01-16T03:16:39;96834.47;;;1.73;92.08
70445;BME280;57902;49.638;11.070;2023-01-16T03:30:28;96819.25;;;1.71;93.03
70445;BME280;57902;49.638;11.070;2023-01-16T03:33:36;96804.91;;;1.67;93.22
70445;BME280;57902;49.638;11.070;2023-01-16T03:36:15;96791.44;;;1.64;93.64
70445;BME280;57902;49.638;11.070;2023-01-16T03:38:47;96785.44;;;1.68;92.99
70445;BME280;57902;49.638;11.070;2023-01-16T03:41:17;96775.50;;;1.55;93.38
70445;BME280;57902;49.638;11.070;2023-01-16T03:43:49;96770.44;;;1.54;93.12
70445;BME280;57902;49.638;11.070;2023-01-16T03:46:27;96765.50;;;1.48;93.45
70445;BME280;57902;49.638;11.070;2023-01-16T03:49:03;96755.34;;;1.46;93.82
70445;BME280;57902;49.638;11.070;2023-01-16T03:51:35;96751.06;;;1.48;93.26
70445;BME280;57902;49.638;11.070;2023-01-16T03:54:31;96743.56;;;1.42;93.66
70445;BME280;57902;49.638;11.070;2023-01-16T03:59:36;96721.59;;;1.41;93.55
70445;BME280;57902;49.638;11.070;2023-01-16T04:02:12;96721.44;;;1.50;92.80
70445;BME280;57902;49.638;11.070;2023-01-16T04:04:59;96718.06;;;1.48;92.78
70445;BME280;57902;49.638;11.070;2023-01-16T04:07:31;96711.28;;;1.50;92.60
70445;BME280;57902;49.638;11.070;2023-01-16T04:10:11;96709.66;;;1.46;92.77
70445;BME280;57902;49.638;11.070;2023-01-16T04:12:43;96701.97;;;1.49;92.39
70445;BME280;57902;49.638;11.070;2023-01-16T04:15:11;96701.13;;;1.50;92.86
70445;BME280;57902;49.638;11.070;2023-01-16T04:17:38;96713.91;;;1.46;93.28
70445;BME280;57902;49.638;11.070;2023-01-16T04:20:06;96698.59;;;1.49;92.63
70445;BME280;57902;49.638;11.070;2023-01-16T04:22:33;96691.06;;;1.44;92.80
70445;BME280;57902;49.638;11.070;2023-01-16T04:25:06;96681.72;;;1.46;92.22
70445;BME280;57902;49.638;11.070;2023-01-16T04:27:34;96674.22;;;1.40;92.61
70445;BME280;57902;49.638;11.070;2023-01-16T04:30:04;96672.56;;;1.37;92.46
70445;BME280;57902;49.638;11.070;2023-01-16T04:32:31;96672.50;;;1.40;92.20
70445;BME280;57902;49.638;11.070;2023-01-16T04:34:57;96670.09;;;1.34;92.78
70445;BME280;57902;49.638;11.070;2023-01-16T04:37:23;96664.28;;;1.28;92.67
70445;BME280;57902;49.638;11.070;2023-01-16T04:39:50;96660.16;;;1.24;93.12
70445;BME280;57902;49.638;11.070;2023-01-16T04:42:16;96650.09;;;1.17;93.42
70445;BME280;57902;49.638;11.070;2023-01-16T04:44:43;96655.34;;;1.08;93.88
70445;BME280;57902;49.638;11.070;2023-01-16T04:47:10;96641.97;;;1.00;94.58
70445;BME280;57902;49.638;11.070;2023-01-16T04:49:36;96632.78;;;0.94;95.08
70445;BME280;57902;49.638;11.070;2023-01-16T04:52:03;96634.50;;;0.91;95.54
70445;BME280;57902;49.638;11.070;2023-01-16T04:54:30;96633.50;;;0.99;94.71
70445;BME280;57902;49.638;11.070;2023-01-16T04:56:56;96631.91;;;0.94;94.91
70445;BME280;57902;49.638;11.070;2023-01-16T04:59:22;96624.44;;;0.86;95.40
70445;BME280;57902;49.638;11.070;2023-01-16T05:01:49;96621.16;;;0.79;95.34
70445;BME280;57902;49.638;11.070;2023-01-16T05:04:16;96622.03;;;0.80;95.61
70445;BME280;57902;49.638;11.070;2023-01-16T05:06:42;96614.56;;;0.72;95.97
70445;BME280;57902;49.638;11.070;2023-01-16T05:09:09;96601.81;;;0.75;95.67
70445;BME280;57902;49.638;11.070;2023-01-16T05:11:35;96598.50;;;0.70;95.79
70445;BME280;57902;49.638;11.070;2023-01-16T05:14:02;96591.84;;;0.64;96.09
70445;BME280;57902;49.638;11.070;2023-01-16T05:16:29;96582.59;;;0.63;96.03
70445;BME280;57902;49.638;11.070;2023-01-16T05:18:55;96588.66;;;0.55;97.33
70445;BME280;57902;49.638;11.070;2023-01-16T05:21:21;96584.50;;;0.50;96.89
70445;BME280;57902;49.638;11.070;2023-01-16T05:23:48;96587.06;;;0.49;97.08
70445;BME280;57902;49.638;11.070;2023-01-16T05:26:14;96575.97;;;0.55;96.80
70445;BME280;57902;49.638;11.070;2023-01-16T05:28:41;96567.53;;;0.52;96.69
70445;BME280;57902;49.638;11.070;2023-01-16T05:31:07;96564.25;;;0.47;96.84
70445;BME280;57902;49.638;11.070;2023-01-16T05:33:34;96552.47;;;0.45;97.74
70445;BME280;57902;49.638;11.070;2023-01-16T05:36:00;96549.94;;;0.45;97.49
70445;BME280;57902;49.638;11.070;2023-01-16T05:38:27;96551.63;;;0.46;96.98
70445;BME280;57902;49.638;11.070;2023-01-16T05:40:53;96538.06;;;0.47;96.74
70445;BME280;57902;49.638;11.070;2023-01-16T05:43:20;96538.81;;;0.52;95.97
70445;BME280;57902;49.638;11.070;2023-01-16T05:45:46;96535.50;;;0.50;96.33
70445;BME280;57902;49.638;11.070;2023-01-16T05:48:13;96531.97;;;0.56;95.85
70445;BME280;57902;49.638;11.070;2023-01-16T05:50:40;96520.25;;;0.51;96.03
70445;BME280;57902;49.638;11.070;2023-01-16T05:53:06;96531.25;;;0.50;95.99
70445;BME280;57902;49.638;11.070;2023-01-16T05:55:43;96527.91;;;0.47;96.49
70445;BME280;57902;49.638;11.070;2023-01-16T05:58:12;96526.25;;;0.47;95.97
70445;BME280;57902;49.638;11.070;2023-01-16T06:00:40;96520.19;;;0.55;95.23
70445;BME280;57902;49.638;11.070;2023-01-16T06:03:07;96520.19;;;0.55;94.95
70445;BME280;57902;49.638;11.070;2023-01-16T06:05:34;96516.84;;;0.52;95.20
70445;BME280;57902;49.638;11.070;2023-01-16T06:08:01;96498.16;;;0.57;94.44
70445;BME280;57902;49.638;11.070;2023-01-16T06:10:28;96501.59;;;0.54;94.67
70445;BME280;57902;49.638;11.070;2023-01-16T06:12:55;96497.53;;;0.45;95.59
70445;BME280;57902;49.638;11.070;2023-01-16T06:15:21;96486.59;;;0.43;95.78
70445;BME280;57902;49.638;11.070;2023-01-16T06:17:48;96490.03;;;0.39;96.14
70445;BME280;57902;49.638;11.070;2023-01-16T06:20:17;96479.97;;;0.36;96.58
70445;BME280;57902;49.638;11.070;2023-01-16T06:22:43;96471.38;;;0.43;95.54
70445;BME280;57902;49.638;11.070;2023-01-16T06:25:10;96460.50;;;0.37;96.21
70445;BME280;57902;49.638;11.070;2023-01-16T06:27:37;96461.38;;;0.37;95.89
70445;BME280;57902;49.638;11.070;2023-01-16T06:30:05;96452.94;;;0.35;96.05
70445;BME280;57902;49.638;11.070;2023-01-16T06:32:32;96452.03;;;0.39;95.78
70445;BME280;57902;49.638;11.070;2023-01-16T06:34:59;96450.31;;;0.41;95.43
70445;BME280;57902;49.638;11.070;2023-01-16T06:37:25;96446.97;;;0.38;95.51
70445;BME280;57902;49.638;11.070;2023-01-16T06:39:51;96444.47;;;0.36;95.71
70445;BME280;57902;49.638;11.070;2023-01-16T06:42:18;96436.91;;;0.34;95.78
70445;BME280;57902;49.638;11.070;2023-01-16T06:44:46;96432.72;;;0.32;95.67
70445;BME280;57902;49.638;11.070;2023-01-16T06:47:12;96431.84;;;0.34;95.52
70445;BME280;57902;49.638;11.070;2023-01-16T06:49:39;96415.81;;;0.34;95.57
70445;BME280;57902;49.638;11.070;2023-01-16T06:52:05;96428.47;;;0.34;95.50
70445;BME280;57902;49.638;11.070;2023-01-16T06:54:31;96429.34;;;0.31;95.65
70445;BME280;57902;49.638;11.070;2023-01-16T06:56:58;96424.22;;;0.34;95.61
70445;BME280;57902;49.638;11.070;2023-01-16T06:59:24;96403.00;;;0.40;94.87
70445;BME280;57902;49.638;11.070;2023-01-16T07:01:51;96403.94;;;0.34;95.05
70445;BME280;57902;49.638;11.070;2023-01-16T07:04:17;96398.03;;;0.36;94.84
70445;BME280;57902;49.638;11.070;2023-01-16T07:06:44;96394.63;;;0.35;95.01
70445;BME280;57902;49.638;11.070;2023-01-16T07:09:10;96392.75;;;0.45;94.50
70445;BME280;57902;49.638;11.070;2023-01-16T07:11:37;96376.78;;;0.41;94.66
70445;BME280;57902;49.638;11.070;2023-01-16T07:14:03;96373.44;;;0.39;94.42
70445;BME280;57902;49.638;11.070;2023-01-16T07:16:49;96364.97;;;0.40;94.39
70445;BME280;57902;49.638;11.070;2023-01-16T07:19:33;96363.38;;;0.36;94.83
70445;BME280;57902;49.638;11.070;2023-01-16T07:22:19;96357.34;;;0.42;94.18
70445;BME280;57902;49.638;11.070;2023-01-16T07:25:11;96348.84;;;0.44;94.10
70445;BME280;57902;49.638;11.070;2023-01-16T07:27:39;96346.44;;;0.37;94.79
70445;BME280;57902;49.638;11.070;2023-01-16T07:30:07;96339.50;;;0.46;94.01
70445;BME280;57902;49.638;11.070;2023-01-16T07:32:34;96337.72;;;0.51;93.27
70445;BME280;57902;49.638;11.070;2023-01-16T07:35:01;96335.19;;;0.51;93.48
70445;BME280;57902;49.638;11.070;2023-01-16T07:37:28;96335.97;;;0.54;93.57
70445;BME280;57902;49.638;11.070;2023-01-16T07:39:54;96325.00;;;0.53;93.66
70445;BME280;57902;49.638;11.070;2023-01-16T07:42:21;96310.41;;;0.63;93.39
70445;BME280;57902;49.638;11.070;2023-01-16T07:44:47;96313.47;;;0.77;92.12
70445;BME280;57902;49.638;11.070;2023-01-16T07:47:13;96291.97;;;0.94;91.24
70445;BME280;57902;49.638;11.070;2023-01-16T07:49:40;96284.91;;;1.07;90.90
70445;BME280;57902;49.638;11.070;2023-01-16T07:52:06;96281.06;;;1.25;89.78
70445;BME280;57902;49.638;11.070;2023-01-16T07:54:33;96271.47;;;1.36;88.81
70445;BME280;57902;49.638;11.070;2023-01-16T07:57:01;96275.16;;;1.57;87.99
70445;BME280;57902;49.638;11.070;2023-01-16T07:59:28;96267.84;;;1.79;87.00
70445;BME280;57902;49.638;11.070;2023-01-16T08:01:55;96265.38;;;2.06;85.97
70445;BME280;57902;49.638;11.070;2023-01-16T08:04:21;96256.59;;;2.18;84.08
70445;BME280;57902;49.638;11.070;2023-01-16T08:06:48;96250.03;;;2.39;83.26
70445;BME280;57902;49.638;11.070;2023-01-16T08:09:14;96242.34;;;2.69;82.12
70445;BME280;57902;49.638;11.070;2023-01-16T08:11:41;96245.44;;;2.78;80.80
70445;BME280;57902;49.638;11.070;2023-01-16T08:14:13;96237.94;;;3.01;79.96
70445;BME280;57902;49.638;11.070;2023-01-16T08:16:40;96227.16;;;3.19;78.27
70445;BME280;57902;49.638;11.070;2023-01-16T08:19:07;96226.34;;;3.19;77.84
70445;BME280;57902;49.638;11.070;2023-01-16T08:21:33;96212.81;;;3.17;78.48
70445;BME280;57902;49.638;11.070;2023-01-16T08:24:00;96222.06;;;3.19;77.74
70445;BME280;57902;49.638;11.070;2023-01-16T08:26:26;96214.16;;;3.27;77.79
70445;BME280;57902;49.638;11.070;2023-01-16T08:28:52;96210.78;;;3.26;77.33
70445;BME280;57902;49.638;11.070;2023-01-16T08:31:19;96211.00;;;3.20;76.89
70445;BME280;57902;49.638;11.070;2023-01-16T08:33:48;96198.16;;;3.23;77.72
70445;BME280;57902;49.638;11.070;2023-01-16T08:36:15;96184.34;;;3.30;76.90
70445;BME280;57902;49.638;11.070;2023-01-16T08:38:43;96182.13;;;3.45;76.40
70445;BME280;57902;49.638;11.070;2023-01-16T08:41:10;96175.16;;;3.50;75.93
70445;BME280;57902;49.638;11.070;2023-01-16T08:43:56;96172.47;;;3.55;75.74
70445;BME280;57902;49.638;11.070;2023-01-16T08:46:42;96168.19;;;3.55;75.65
70445;BME280;57902;49.638;11.070;2023-01-16T08:49:29;96163.31;;;3.73;75.80
70445;BME280;57902;49.638;11.070;2023-01-16T08:52:14;96155.63;;;3.98;74.77
70445;BME280;57902;49.638;11.070;2023-01-16T08:54:40;96156.56;;;4.17;73.75
70445;BME280;57902;49.638;11.070;2023-01-16T08:57:07;96137.47;;;4.28;72.81
70445;BME280;57902;49.638;11.070;2023-01-16T08:59:33;96130.94;;;4.43;71.83
70445;BME280;57902;49.638;11.070;2023-01-16T09:02:01;96118.50;;;4.55;71.24
70445;BME280;57902;49.638;11.070;2023-01-16T09:04:28;96109.38;;;4.50;70.60
70445;BME280;57902;49.638;11.070;2023-01-16T09:06:54;96108.44;;;4.73;69.20
70445;BME280;57902;49.638;11.070;2023-01-16T09:09:21;96105.81;;;4.95;68.34
70445;BME280;57902;49.638;11.070;2023-01-16T09:11:54;96101.34;;;4.80;68.96
70445;BME280;57902;49.638;11.070;2023-01-16T09:14:39;96096.63;;;5.12;67.62
70445;BME280;57902;49.638;11.070;2023-01-16T09:17:05;96102.47;;;5.14;67.85
70445;BME280;57902;49.638;11.070;2023-01-16T09:19:35;96106.00;;;5.11;68.25
70445;BME280;57902;49.638;11.070;2023-01-16T09:22:04;96096.28;;;5.19;67.29
70445;BME280;57902;49.638;11.070;2023-01-16T09:24:34;96100.56;;;5.19;68.19
70445;BME280;57902;49.638;11.070;2023-01-16T09:27:02;96094.63;;;5.18;68.09
70445;BME280;57902;49.638;11.070;2023-01-16T09:29:29;96094.81;;;5.14;67.61
70445;BME280;57902;49.638;11.070;2023-01-16T09:31:55;96084.03;;;5.07;67.60
70445;BME280;57902;49.638;11.070;2023-01-16T09:34:22;96082.88;;;5.14;66.50
70445;BME280;57902;49.638;11.070;2023-01-16T09:36:48;96079.00;;;5.05;67.43
70445;BME280;57902;49.638;11.070;2023-01-16T09:39:15;96072.22;;;5.04;67.39
70445;BME280;57902;49.638;11.070;2023-01-16T09:41:55;96062.28;;;4.98;66.68
70445;BME280;57902;49.638;11.070;2023-01-16T09:44:48;96070.00;;;4.97;68.42
70445;BME280;57902;49.638;11.070;2023-01-16T09:47:15;96068.84;;;5.04;68.20
70445;BME280;57902;49.638;11.070;2023-01-16T09:49:49;96052.50;;;5.08;67.70
70445;BME280;57902;49.638;11.070;2023-01-16T09:52:19;96045.75;;;5.07;66.58
70445;BME280;57902;49.638;11.070;2023-01-16T09:55:33;96052.09;;;5.17;65.83
70445;BME280;57902;49.638;11.070;2023-01-16T09:58:21;96040.78;;;5.23;66.04
70445;BME280;57902;49.638;11.070;2023-01-16T10:01:11;96042.91;;;5.13;67.28
70445;BME280;57902;49.638;11.070;2023-01-16T10:03:40;96032.09;;;5.08;66.92
70445;BME280;57902;49.638;11.070;2023-01-16T10:06:31;96021.75;;;5.30;65.96
70445;BME280;57902;49.638;11.070;2023-01-16T10:09:12;96012.19;;;5.34;67.56
70445;BME280;57902;49.638;11.070;2023-01-16T10:12:06;96012.94;;;5.36;66.10
70445;BME280;57902;49.638;11.070;2023-01-16T10:23:47;95980.06;;;5.47;65.40
70445;BME280;57902;49.638;11.070;2023-01-16T10:26:29;95970.13;;;5.60;65.38
70445;BME280;57902;49.638;11.070;2023-01-16T10:29:10;95951.13;;;5.66;65.47
70445;BME280;57902;49.638;11.070;2023-01-16T10:31:49;95948.72;;;5.80;64.78
70445;BME280;57902;49.638;11.070;2023-01-16T10:34:24;95932.59;;;5.97;61.33
70445;BME280;57902;49.638;11.070;2023-01-16T10:36:55;95931.25;;;5.71;60.44
70445;BME280;57902;49.638;11.070;2023-01-16T10:39:33;95925.19;;;5.73;60.36
70445;BME280;57902;49.638;11.070;2023-01-16T10:42:11;95922.91;;;5.67;61.71
70445;BME280;57902;49.638;11.070;2023-01-16T10:47:43;95913.75;;;5.81;62.23
70445;BME280;57902;49.638;11.070;2023-01-16T10:50:29;95901.72;;;5.83;63.58
70445;BME280;57902;49.638;11.070;2023-01-16T10:53:08;95896.16;;;5.74;63.62
70445;BME280;57902;49.638;11.070;2023-01-16T10:55:38;95887.72;;;5.72;62.92
70445;BME280;57902;49.638;11.070;2023-01-16T10:58:27;95888.91;;;5.65;63.49
70445;BME280;57902;49.638;11.070;2023-01-16T11:00:59;95894.28;;;5.78;62.10
70445;BME280;57902;49.638;11.070;2023-01-16T11:03:33;95885.25;;;5.71;61.59
70445;BME280;57902;49.638;11.070;2023-01-16T11:06:11;95865.19;;;5.63;61.93
70445;BME280;57902;49.638;11.070;2023-01-16T11:08:40;95857.19;;;5.52;62.78
70445;BME280;57902;49.638;11.070;2023-01-16T11:11:09;95853.06;;;5.67;61.47
70445;BME280;57902;49.638;11.070;2023-01-16T11:13:59;95843.53;;;5.88;62.46
70445;BME280;57902;49.638;11.070;2023-01-16T11:16:44;95831.75;;;6.19;59.84
70445;BME280;57902;49.638;11.070;2023-01-16T11:19:40;95813.50;;;5.91;60.97
70445;BME280;57902;49.638;11.070;2023-01-16T11:22:21;95808.47;;;5.90;60.03
70445;BME280;57902;49.638;11.070;2023-01-16T11:24:47;95795.75;;;5.88;61.03
70445;BME280;57902;49.638;11.070;2023-01-16T11:27:19;95788.09;;;5.88;59.62
70445;BME280;57902;49.638;11.070;2023-01-16T11:29:46;95796.63;;;5.71;60.51
70445;BME280;57902;49.638;11.070;2023-01-16T11:32:18;95788.75;;;5.58;59.83
70445;BME280;57902;49.638;11.070;2023-01-16T11:34:54;95786.19;;;5.41;60.80
70445;BME280;57902;49.638;11.070;2023-01-16T11:37:22;95775.91;;;5.42;60.68
70445;BME280;57902;49.638;11.070;2023-01-16T11:39:53;95800.84;;;5.37;60.00
70445;BME280;57902;49.638;11.070;2023-01-16T11:42:20;95753.44;;;5.32;60.14
70445;BME280;57902;49.638;11.070;2023-01-16T11:45:24;95761.19;;;5.30;60.80
70445;BME280;57902;49.638;11.070;2023-01-16T11:48:13;95748.91;;;5.19;61.13
70445;BME280;57902;49.638;11.070;2023-01-16T11:50:55;95741.47;;;5.15;61.88
70445;BME280;57902;49.638;11.070;2023-01-16T11:53:22;95736.06;;;5.21;62.30
70445;BME280;57902;49.638;11.070;2023-01-16T11:55:56;95735.78;;;5.27;62.11
70445;BME280;57902;49.638;11.070;2023-01-16T11:59:01;95725.84;;;5.21;61.42
70445;BME280;57902;49.638;11.070;2023-01-16T12:04:42;95703.41;;;5.28;62.14
70445;BME280;57902;49.638;11.070;2023-01-16T12:08:17;95666.59;;;5.32;62.54
70445;BME280;57902;49.638;11.070;2023-01-16T12:10:25;95647.50;;;5.39;62.62
70445;BME280;57902;49.638;11.070;2023-01-16T12:13:03;95641.53;;;5.38;61.41
70445;BME280;57902;49.638;11.070;2023-01-16T12:16:09;95648.78;;;5.30;62.17
70445;BME280;57902;49.638;11.070;2023-01-16T12:18:47;95635.94;;;5.32;62.60
70445;BME280;57902;49.638;11.070;2023-01-16T12:33:26;95636.81;;;5.31;62.97
70445;BME280;57902;49.638;11.070;2023-01-16T12:39:09;95637.03;;;5.43;62.42
70445;BME280;57902;49.638;11.070;2023-01-16T12:45:03;95640.75;;;5.54;63.38
70445;BME280;57902;49.638;11.070;2023-01-16T12:58:50;95649.91;;;5.58;61.62
70445;BME280;57902;49.638;11.070;2023-01-16T13:01:28;95643.69;;;5.46;60.63
70445;BME280;57902;49.638;11.070;2023-01-16T13:04:27;95642.81;;;5.63;59.33
70445;BME280;57902;49.638;11.070;2023-01-16T13:06:58;95641.94;;;5.64;59.75
70445;BME280;57902;49.638;11.070;2023-01-16T13:09:43;95644.13;;;5.54;59.29
70445;BME280;57902;49.638;11.070;2023-01-16T13:12:27;95640.50;;;5.58;59.47
70445;BME280;57902;49.638;11.070;2023-01-16T13:15:18;95631.44;;;5.53;59.65
70445;BME280;57902;49.638;11.070;2023-01-16T13:17:54;95627.31;;;5.50;60.33
70445;BME280;57902;49.638;11.070;2023-01-16T13:20:23;95622.44;;;5.46;60.49
70445;BME280;57902;49.638;11.070;2023-01-16T13:23:11;95615.81;;;5.41;60.71
70445;BME280;57902;49.638;11.070;2023-01-16T13:25:43;95627.19;;;5.36;60.84
70445;BME280;57902;49.638;11.070;2023-01-16T13:28:32;95628.19;;;5.33;61.61
70445;BME280;57902;49.638;11.070;2023-01-16T13:31:05;95619.38;;;5.39;61.30
70445;BME280;57902;49.638;11.070;2023-01-16T13:33:35;95615.09;;;5.39;61.52
70445;BME280;57902;49.638;11.070;2023-01-16T13:38:48;95590.69;;;5.34;61.37
70445;BME280;57902;49.638;11.070;2023-01-16T13:41:41;95611.22;;;5.32;61.61
70445;BME280;57902;49.638;11.070;2023-01-16T13:44:19;95619.19;;;5.26;61.91
70445;BME280;57902;49.638;11.070;2023-01-16T13:47:11;95617.78;;;5.20;61.67
70445;BME280;57902;49.638;11.070;2023-01-16T13:49:39;95608.22;;;5.24;62.07
70445;BME280;57902;49.638;11.070;2023-01-16T13:52:18;95604.28;;;5.18;62.69
70445;BME280;57902;49.638;11.070;2023-01-16T13:54:47;95613.78;;;5.15;63.76
70445;BME280;57902;49.638;11.070;2023-01-16T13:57:22;95612.97;;;5.14;62.78
70445;BME280;57902;49.638;11.070;2023-01-16T13:59:52;95614.03;;;5.10;63.14
70445;BME280;57902;49.638;11.070;2023-01-16T14:13:24;95602.56;;;5.01;62.91
70445;BME280;57902;49.638;11.070;2023-01-16T14:16:30;95595.88;;;4.99;62.53
70445;BME280;57902;49.638;11.070;2023-01-16T14:19:48;95591.63;;;4.99;62.47
70445;BME280;57902;49.638;11.070;2023-01-16T14:21:49;95571.91;;;5.01;62.28
70445;BME280;57902;49.638;11.070;2023-01-16T14:24:38;95558.41;;;4.99;61.88
70445;BME280;57902;49.638;11.070;2023-01-16T14:27:11;95572.25;;;4.95;62.60
70445;BME280;57902;49.638;11.070;2023-01-16T14:29:47;95557.50;;;5.00;61.94
70445;BME280;57902;49.638;11.070;2023-01-16T14:32:22;95556.06;;;4.95;62.78
70445;BME280;57902;49.638;11.070;2023-01-16T14:35:02;95552.22;;;4.87;63.10
70445;BME280;57902;49.638;11.070;2023-01-16T14:37:36;95550.31;;;4.91;63.46
70445;BME280;57902;49.638;11.070;2023-01-16T14:42:36;95540.19;;;4.89;62.34
70445;BME280;57902;49.638;11.070;2023-01-16T14:45:32;95519.03;;;4.87;62.88
70445;BME280;57902;49.638;11.070;2023-01-16T14:51:33;95514.06;;;4.84;63.23
70445;BME280;57902;49.638;11.070;2023-01-16T14:54:28;95507.25;;;4.85;63.42
70445;BME280;57902;49.638;11.070;2023-01-16T14:57:18;95498.44;;;4.90;62.74
70445;BME280;57902;49.638;11.070;2023-01-16T14:59:58;95492.00;;;4.83;63.44
70445;BME280;57902;49.638;11.070;2023-01-16T15:05:23;95479.00;;;4.88;63.65
70445;BME280;57902;49.638;11.070;2023-01-16T15:08:21;95471.75;;;4.80;64.08
70445;BME280;57902;49.638;11.070;2023-01-16T15:10:50;95455.06;;;4.90;63.76
70445;BME280;57902;49.638;11.070;2023-01-16T15:13:34;95451.34;;;4.80;64.34
70445;BME280;57902;49.638;11.070;2023-01-16T15:16:30;95437.66;;;4.81;63.75